createdAt,value
2019-05-13T00:00:14.323Z,2.63
2019-05-13T00:02:43.808Z,1.97
2019-05-13T00:05:14.702Z,2.40
2019-05-13T00:07:43.919Z,2.70
2019-05-13T00:10:14.752Z,2.43
2019-05-13T00:12:44.527Z,2.03
2019-05-13T00:15:14.165Z,2.87
2019-05-13T00:17:44.719Z,2.43
2019-05-13T00:20:14.138Z,2.93
2019-05-13T00:22:44.709Z,2.10
2019-05-13T00:25:14.500Z,2.80
2019-05-13T00:27:44.349Z,2.30
2019-05-13T00:30:14.454Z,2.73
2019-05-13T00:32:44.582Z,2.37
2019-05-13T00:35:14.162Z,3.33
2019-05-13T00:37:44.219Z,2.80
2019-05-13T00:40:14.385Z,2.33
2019-05-13T00:42:44.189Z,2.83
2019-05-13T00:45:14.615Z,2.60
2019-05-13T00:47:43.789Z,2.50
2019-05-13T00:50:14.191Z,2.37
2019-05-13T00:52:44.950Z,2.77
2019-05-13T00:55:14.737Z,3.80
2019-05-13T00:57:43.804Z,3.20
2019-05-13T01:00:14.013Z,3.30
2019-05-13T01:02:44.642Z,2.40
2019-05-13T01:05:14.661Z,2.83
2019-05-13T01:07:44.414Z,3.20
2019-05-13T01:10:13.500Z,2.93
2019-05-13T01:12:44.152Z,2.60
2019-05-13T01:15:13.651Z,3.10
2019-05-13T01:17:44.459Z,2.40
2019-05-13T01:20:14.467Z,2.80
2019-05-13T01:22:44.062Z,2.93
2019-05-13T01:25:14.416Z,2.63
2019-05-13T01:27:53.722Z,2.83
2019-05-13T01:30:23.809Z,3.30
2019-05-13T01:32:53.998Z,2.70
2019-05-13T01:35:23.600Z,3.03
2019-05-13T01:37:53.883Z,2.70
2019-05-13T01:40:23.980Z,2.77
2019-05-13T01:42:54.203Z,2.70
2019-05-13T01:45:24.062Z,3.23
2019-05-13T01:47:54.419Z,2.97
2019-05-13T01:50:24.115Z,2.83
2019-05-13T01:52:53.306Z,3.70
2019-05-13T01:55:21.912Z,3.07
2019-05-13T01:57:50.382Z,3.10
2019-05-13T02:00:18.928Z,3.37
2019-05-13T02:02:47.355Z,3.20
2019-05-13T02:05:15.738Z,3.70
2019-05-13T02:07:56.833Z,2.63
2019-05-13T02:10:16.058Z,2.87
2019-05-13T02:12:44.835Z,3.10
2019-05-13T02:15:14.559Z,4.00
2019-05-13T02:17:44.658Z,3.97
2019-05-13T02:20:14.859Z,3.30
2019-05-13T02:22:44.458Z,3.07
2019-05-13T02:25:13.887Z,2.93
2019-05-13T02:27:44.015Z,3.03
2019-05-13T02:30:16.241Z,3.63
2019-05-13T02:32:43.175Z,4.37
2019-05-13T02:35:13.845Z,3.47
2019-05-13T02:37:43.352Z,2.70
2019-05-13T02:40:13.578Z,3.07
2019-05-13T02:42:43.589Z,3.67
2019-05-13T02:45:12.815Z,4.13
2019-05-13T02:47:44.362Z,3.53
2019-05-13T02:50:12.680Z,3.23
2019-05-13T02:52:44.238Z,3.20
2019-05-13T02:55:12.476Z,3.53
2019-05-13T02:57:43.682Z,3.50
2019-05-13T03:00:12.930Z,3.30
2019-05-13T03:02:43.713Z,3.73
2019-05-13T03:05:13.605Z,3.23
2019-05-13T03:07:43.108Z,3.53
2019-05-13T03:10:13.573Z,3.20
2019-05-13T03:12:42.824Z,3.60
2019-05-13T03:15:13.012Z,3.27
2019-05-13T03:18:03.238Z,3.37
2019-05-13T03:20:33.003Z,3.93
2019-05-13T03:23:03.050Z,4.60
2019-05-13T03:25:33.002Z,3.47
2019-05-13T03:28:03.193Z,3.33
2019-05-13T03:30:35.388Z,4.23
2019-05-13T03:33:11.218Z,3.63
2019-05-13T03:35:36.885Z,3.43
2019-05-13T03:38:05.343Z,3.00
2019-05-13T03:40:33.776Z,3.23
2019-05-13T03:43:03.085Z,3.77
2019-05-13T03:45:33.174Z,3.57
2019-05-13T03:48:04.256Z,3.13
2019-05-13T03:50:34.573Z,3.70
2019-05-13T03:53:03.037Z,5.37
2019-05-13T03:55:32.873Z,4.10
2019-05-13T03:58:03.018Z,3.97
2019-05-13T04:00:32.442Z,4.20
2019-05-13T04:03:03.220Z,3.47
2019-05-13T04:05:33.467Z,4.00
2019-05-13T04:08:03.118Z,4.13
2019-05-13T04:10:33.474Z,4.10
2019-05-13T04:13:03.786Z,3.80
2019-05-13T04:15:32.041Z,3.13
2019-05-13T04:18:02.814Z,3.60
2019-05-13T04:20:33.223Z,3.70
2019-05-13T04:23:02.912Z,3.27
2019-05-13T04:25:32.220Z,3.70
2019-05-13T04:28:03.329Z,3.37
2019-05-13T04:30:33.098Z,4.17
2019-05-13T04:33:02.383Z,3.63
2019-05-13T04:35:33.243Z,4.30
2019-05-13T04:38:03.587Z,4.50
2019-05-13T04:40:33.135Z,4.27
2019-05-13T04:43:02.896Z,4.40
2019-05-13T04:45:33.085Z,3.93
2019-05-13T04:48:03.204Z,4.13
2019-05-13T04:50:32.979Z,4.60
2019-05-13T04:53:03.248Z,4.30
2019-05-13T04:55:33.261Z,4.63
2019-05-13T04:58:03.576Z,4.43
2019-05-13T05:00:42.627Z,4.80
2019-05-13T05:03:23.085Z,4.40
2019-05-13T05:05:53.054Z,5.10
2019-05-13T05:08:47.602Z,4.63
2019-05-13T05:11:38.142Z,4.90
2019-05-13T05:14:25.997Z,5.40
2019-05-13T05:17:06.563Z,5.17
2019-05-13T05:19:56.442Z,5.47
2019-05-13T05:22:34.791Z,6.47
2019-05-13T05:25:11.668Z,5.37
2019-05-13T05:28:02.533Z,5.73
2019-05-13T05:30:49.033Z,4.87
2019-05-13T05:33:34.761Z,5.13
2019-05-13T05:36:21.772Z,4.40
2019-05-13T05:39:04.976Z,4.53
2019-05-13T05:41:33.926Z,5.10
2019-05-13T05:44:02.507Z,4.87
2019-05-13T05:46:32.483Z,5.03
2019-05-13T05:49:03.152Z,4.20
2019-05-13T05:51:33.271Z,4.30
2019-05-13T05:54:02.573Z,4.10
2019-05-13T05:56:32.659Z,3.83
2019-05-13T05:59:03.009Z,3.87
2019-05-13T06:01:33.161Z,4.37
2019-05-13T06:04:02.089Z,3.50
2019-05-13T06:06:32.978Z,3.50
2019-05-13T06:09:01.930Z,4.20
2019-05-13T06:11:32.059Z,3.40
2019-05-13T06:14:02.314Z,3.37
2019-05-13T06:16:32.026Z,3.33
2019-05-13T06:19:01.450Z,3.93
2019-05-13T06:21:32.172Z,2.87
2019-05-13T06:24:02.744Z,3.90
2019-05-13T06:26:31.413Z,3.73
2019-05-13T06:29:02.537Z,3.90
2019-05-13T06:31:32.252Z,3.83
2019-05-13T06:34:02.091Z,3.70
2019-05-13T06:36:31.642Z,4.40
2019-05-13T06:39:02.312Z,3.80
2019-05-13T06:41:32.372Z,3.37
2019-05-13T06:44:02.263Z,3.63
2019-05-13T06:46:32.349Z,3.47
2019-05-13T06:49:02.671Z,4.13
2019-05-13T06:51:31.443Z,3.13
2019-05-13T06:54:02.232Z,3.60
2019-05-13T06:56:32.286Z,3.43
2019-05-13T06:59:01.483Z,3.70
2019-05-13T07:01:32.259Z,3.90
2019-05-13T07:04:02.368Z,3.10
2019-05-13T07:06:32.272Z,3.33
2019-05-13T07:09:01.539Z,2.97
2019-05-13T07:11:31.442Z,3.13
2019-05-13T07:14:02.369Z,3.30
2019-05-13T07:16:31.749Z,3.63
2019-05-13T07:19:02.443Z,3.37
2019-05-13T07:21:32.326Z,3.00
2019-05-13T07:24:02.228Z,3.00
2019-05-13T07:26:31.519Z,2.63
2019-05-13T07:29:03.283Z,3.63
2019-05-13T07:31:32.383Z,3.30
2019-05-13T07:34:02.307Z,3.27
2019-05-13T07:36:31.610Z,3.33
2019-05-13T07:39:01.378Z,3.60
2019-05-13T07:41:36.397Z,2.93
2019-05-13T07:44:02.359Z,4.40
2019-05-13T07:46:32.206Z,4.03
2019-05-13T07:49:02.182Z,2.53
2019-05-13T07:51:31.636Z,3.03
2019-05-13T07:54:02.287Z,2.40
2019-05-13T07:56:32.452Z,2.90
2019-05-13T07:59:01.726Z,2.33
2019-05-13T08:01:32.732Z,2.67
2019-05-13T08:04:25.582Z,3.07
2019-05-13T08:06:52.391Z,2.97
2019-05-13T08:09:21.621Z,2.60
2019-05-13T08:12:04.441Z,3.20
2019-05-13T08:14:21.815Z,3.10
2019-05-13T08:16:51.835Z,3.73
2019-05-13T08:19:21.791Z,2.90
2019-05-13T08:21:51.345Z,2.40
2019-05-13T08:24:22.684Z,2.60
2019-05-13T08:26:52.973Z,2.93
2019-05-13T08:29:21.672Z,2.40
2019-05-13T08:31:51.807Z,2.20
2019-05-13T08:34:22.597Z,2.80
2019-05-13T08:36:51.415Z,2.17
2019-05-13T08:39:21.653Z,2.80
2019-05-13T08:41:51.586Z,2.13
2019-05-13T08:44:21.624Z,2.27
2019-05-13T08:46:51.874Z,2.47
2019-05-13T08:49:22.003Z,2.47
2019-05-13T08:51:52.697Z,2.43
2019-05-13T08:54:21.943Z,2.80
2019-05-13T08:56:52.027Z,2.40
2019-05-13T08:59:22.213Z,3.00
2019-05-13T09:01:51.976Z,2.40
2019-05-13T09:04:22.339Z,2.03
2019-05-13T09:06:52.396Z,2.10
2019-05-13T09:09:22.014Z,2.33
2019-05-13T09:11:51.559Z,2.63
2019-05-13T09:14:21.946Z,2.27
2019-05-13T09:16:52.636Z,2.03
2019-05-13T09:19:21.538Z,2.53
2019-05-13T09:21:52.437Z,2.73
2019-05-13T09:24:27.070Z,1.70
2019-05-13T09:26:52.447Z,1.80
2019-05-13T09:29:22.595Z,1.67
2019-05-13T09:31:51.914Z,1.50
2019-05-13T09:34:22.163Z,1.40
2019-05-13T09:36:51.866Z,1.80
2019-05-13T09:39:21.677Z,1.20
2019-05-13T09:41:52.033Z,1.20
2019-05-13T09:44:21.819Z,1.03
2019-05-13T09:46:51.648Z,1.50
2019-05-13T09:49:23.528Z,1.70
2019-05-13T09:51:52.277Z,1.80
2019-05-13T09:54:22.298Z,1.60
2019-05-13T09:56:51.838Z,1.23
2019-05-13T09:59:22.159Z,1.27
2019-05-13T10:01:51.922Z,1.20
2019-05-13T10:04:22.259Z,1.40
2019-05-13T10:06:50.908Z,1.50
2019-05-13T10:09:21.473Z,1.23
2019-05-13T10:11:51.941Z,1.00
2019-05-13T10:14:19.856Z,1.37
2019-05-13T10:16:48.455Z,1.73
2019-05-13T10:19:16.895Z,1.30
2019-05-13T10:21:45.459Z,1.50
2019-05-13T10:24:14.163Z,1.13
2019-05-13T10:26:43.328Z,1.43
2019-05-13T10:29:12.242Z,1.63
2019-05-13T10:31:42.062Z,1.30
2019-05-13T10:34:13.642Z,1.73
2019-05-13T10:36:42.076Z,1.53
2019-05-13T10:39:11.801Z,1.90
2019-05-13T10:41:42.350Z,1.40
2019-05-13T10:44:12.115Z,1.33
2019-05-13T10:46:42.562Z,1.37
2019-05-13T10:49:12.223Z,1.50
2019-05-13T10:51:41.859Z,1.30
2019-05-13T10:54:10.680Z,1.40
2019-05-13T10:56:39.207Z,1.40
2019-05-13T10:59:07.959Z,1.20
2019-05-13T11:01:36.456Z,1.50
2019-05-13T11:04:05.517Z,1.57
2019-05-13T11:06:33.983Z,1.20
2019-05-13T11:09:04.484Z,1.40
2019-05-13T11:11:33.301Z,1.30
2019-05-13T11:14:10.016Z,1.63
2019-05-13T11:16:32.170Z,1.37
2019-05-13T11:19:02.883Z,1.07
2019-05-13T11:21:32.303Z,1.27
2019-05-13T11:24:03.333Z,1.23
2019-05-13T11:26:36.091Z,1.00
2019-05-13T11:29:02.802Z,1.50
2019-05-13T11:31:32.852Z,1.30
2019-05-13T11:34:02.110Z,1.43
2019-05-13T11:36:33.462Z,1.30
2019-05-13T11:39:02.996Z,1.37
2019-05-13T11:41:32.598Z,1.13
2019-05-13T11:44:12.803Z,1.40
2019-05-13T11:46:33.149Z,1.03
2019-05-13T11:49:02.674Z,1.20
2019-05-13T11:51:32.085Z,1.57
2019-05-13T11:54:02.411Z,1.30
2019-05-13T11:56:33.794Z,1.30
2019-05-13T11:59:04.235Z,1.33
2019-05-13T12:01:33.357Z,1.13
2019-05-13T12:04:02.790Z,1.33
2019-05-13T12:06:33.818Z,1.40
2019-05-13T12:09:03.092Z,1.23
2019-05-13T12:11:33.357Z,1.20
2019-05-13T12:14:02.065Z,1.27
2019-05-13T12:16:34.739Z,1.40
2019-05-13T12:19:03.353Z,1.30
2019-05-13T12:21:30.959Z,1.33
2019-05-13T12:24:07.246Z,1.37
2019-05-13T12:26:33.104Z,1.57
2019-05-13T12:29:02.813Z,1.30
2019-05-13T12:31:33.683Z,1.40
2019-05-13T12:34:03.513Z,1.40
2019-05-13T12:36:32.975Z,1.70
2019-05-13T12:39:01.057Z,2.20
2019-05-13T12:41:32.942Z,1.50
2019-05-13T12:44:01.962Z,1.90
2019-05-13T12:46:30.551Z,1.70
2019-05-13T12:48:59.030Z,1.53
2019-05-13T12:51:27.909Z,1.70
2019-05-13T12:53:56.464Z,1.30
2019-05-13T12:56:24.991Z,1.93
2019-05-13T12:58:53.460Z,1.53
2019-05-13T13:01:23.866Z,1.63
2019-05-13T13:03:52.092Z,1.37
2019-05-13T13:06:31.452Z,1.27
2019-05-13T13:08:51.232Z,1.30
2019-05-13T13:11:22.518Z,1.20
2019-05-13T13:13:58.882Z,1.40
2019-05-13T13:16:20.348Z,1.23
2019-05-13T13:18:51.920Z,1.23
2019-05-13T13:21:19.011Z,1.43
2019-05-13T13:23:47.632Z,1.60
2019-05-13T13:26:16.465Z,1.27
2019-05-13T13:28:45.179Z,1.60
2019-05-13T13:31:14.278Z,1.33
2019-05-13T13:33:44.581Z,1.40
2019-05-13T13:36:15.473Z,1.47
2019-05-13T13:38:44.144Z,1.60
2019-05-13T13:41:22.062Z,1.50
2019-05-13T13:43:43.205Z,1.33
2019-05-13T13:46:31.672Z,1.97
2019-05-13T13:48:43.718Z,1.50
2019-05-13T13:51:14.162Z,1.80
2019-05-13T13:53:44.356Z,1.70
2019-05-13T13:56:37.962Z,1.63
2019-05-13T13:59:06.482Z,1.73
2019-05-13T14:01:34.973Z,1.87
2019-05-13T14:04:03.991Z,2.03
2019-05-13T14:07:21.546Z,1.60
2019-05-13T14:09:04.450Z,1.70
2019-05-13T14:11:33.386Z,1.70
2019-05-13T14:14:02.255Z,1.63
2019-05-13T14:16:34.907Z,1.87
2019-05-13T14:19:01.029Z,2.50
2019-05-13T14:21:32.239Z,2.00
2019-05-13T14:23:59.710Z,1.90
2019-05-13T14:26:28.780Z,1.73
2019-05-13T14:28:57.331Z,1.90
2019-05-13T14:31:25.817Z,2.00
2019-05-13T14:33:54.351Z,2.20
2019-05-13T14:36:23.281Z,1.70
2019-05-13T14:38:52.761Z,1.90
2019-05-13T14:41:23.816Z,1.70
2019-05-13T14:43:52.370Z,1.40
2019-05-13T14:46:27.047Z,2.10
2019-05-13T14:48:51.242Z,1.47
2019-05-13T14:51:21.839Z,1.67
2019-05-13T14:53:52.021Z,1.37
2019-05-13T14:56:23.671Z,1.60
2019-05-13T14:58:52.319Z,1.57
2019-05-13T15:01:22.723Z,1.80
2019-05-13T15:03:52.112Z,1.60
2019-05-13T15:06:22.102Z,1.70
2019-05-13T15:08:52.553Z,1.60
2019-05-13T15:11:21.952Z,1.67
2019-05-13T15:13:51.750Z,1.60
2019-05-13T15:16:22.435Z,1.87
2019-05-13T15:19:09.178Z,1.77
2019-05-13T15:21:58.917Z,2.33
2019-05-13T15:24:27.647Z,2.00
2019-05-13T15:26:56.233Z,2.00
2019-05-13T15:29:24.715Z,2.30
2019-05-13T15:31:53.219Z,1.90
2019-05-13T15:34:21.725Z,1.70
2019-05-13T15:36:50.959Z,1.70
2019-05-13T15:39:20.189Z,1.73
2019-05-13T15:41:48.668Z,1.87
2019-05-13T15:44:17.064Z,2.03
2019-05-13T15:46:45.783Z,2.43
2019-05-13T15:49:14.364Z,1.77
2019-05-13T15:51:42.887Z,1.80
2019-05-13T15:54:15.306Z,2.30
2019-05-13T15:56:42.043Z,1.93
2019-05-13T15:59:12.563Z,1.90
2019-05-13T16:01:41.519Z,2.30
2019-05-13T16:04:12.798Z,1.80
2019-05-13T16:06:41.787Z,2.53
2019-05-13T16:09:11.654Z,2.20
2019-05-13T16:11:41.467Z,2.17
2019-05-13T16:14:11.690Z,2.50
2019-05-13T16:16:41.767Z,2.23
2019-05-13T16:19:10.559Z,2.30
2019-05-13T16:21:41.388Z,1.70
2019-05-13T16:24:11.735Z,2.47
2019-05-13T16:26:42.330Z,1.90
2019-05-13T16:29:12.340Z,1.80
2019-05-13T16:31:41.547Z,1.73
2019-05-13T16:34:12.821Z,1.93
2019-05-13T16:36:42.908Z,2.20
2019-05-13T16:39:12.328Z,1.77
2019-05-13T16:41:42.645Z,2.00
2019-05-13T16:44:11.982Z,2.00
2019-05-13T16:46:42.444Z,1.67
2019-05-13T16:49:12.128Z,1.47
2019-05-13T16:51:42.659Z,1.87
2019-05-13T16:54:11.112Z,1.60
2019-05-13T16:56:41.800Z,1.57
2019-05-13T16:59:09.751Z,1.83
2019-05-13T17:01:38.241Z,1.40
2019-05-13T17:04:06.707Z,1.87
2019-05-13T17:06:35.168Z,1.70
2019-05-13T17:09:06.423Z,1.50
2019-05-13T17:11:34.887Z,1.37
2019-05-13T17:14:05.799Z,1.63
2019-05-13T17:16:34.851Z,1.87
2019-05-13T17:19:03.337Z,2.00
2019-05-13T17:21:31.900Z,1.40
2019-05-13T17:24:01.512Z,1.70
2019-05-13T17:26:32.694Z,1.90
2019-05-13T17:29:01.487Z,1.93
2019-05-13T17:31:32.392Z,1.53
2019-05-13T17:34:03.446Z,1.73
2019-05-13T17:36:32.629Z,1.57
2019-05-13T17:39:01.912Z,1.70
2019-05-13T17:41:32.151Z,1.70
2019-05-13T17:44:02.395Z,1.90
2019-05-13T17:46:32.645Z,1.70
2019-05-13T17:49:01.268Z,1.60
2019-05-13T17:51:29.776Z,1.50
2019-05-13T17:53:58.224Z,1.83
2019-05-13T17:56:26.641Z,1.87
2019-05-13T17:58:55.016Z,1.70
2019-05-13T18:01:23.483Z,2.03
2019-05-13T18:03:53.139Z,1.37
2019-05-13T18:06:21.726Z,1.73
2019-05-13T18:08:51.806Z,1.60
2019-05-13T18:11:21.918Z,1.43
2019-05-13T18:13:51.831Z,1.63
2019-05-13T18:16:21.717Z,1.50
2019-05-13T18:18:52.112Z,1.53
2019-05-13T18:21:20.727Z,1.60
2019-05-13T18:23:49.239Z,1.30
2019-05-13T18:26:17.708Z,1.30
2019-05-13T18:28:46.294Z,1.43
2019-05-13T18:31:14.756Z,1.57
2019-05-13T18:33:43.210Z,1.43
2019-05-13T18:36:12.074Z,1.43
2019-05-13T18:38:41.830Z,1.83
2019-05-13T18:41:11.995Z,1.87
2019-05-13T18:43:41.399Z,1.27
2019-05-13T18:46:12.210Z,1.43
2019-05-13T18:48:57.404Z,1.70
2019-05-13T18:51:11.860Z,1.47
2019-05-13T18:53:41.536Z,1.10
2019-05-13T18:56:12.277Z,1.80
2019-05-13T18:58:40.311Z,1.37
2019-05-13T19:01:11.111Z,1.37
2019-05-13T19:03:41.309Z,1.50
2019-05-13T19:06:11.425Z,1.70
2019-05-13T19:08:41.225Z,1.60
2019-05-13T19:11:11.581Z,1.30
2019-05-13T19:13:41.636Z,1.50
2019-05-13T19:16:11.887Z,1.53
2019-05-13T19:18:42.215Z,1.50
2019-05-13T19:21:10.479Z,1.57
2019-05-13T19:23:38.982Z,2.03
2019-05-13T19:26:07.461Z,1.50
2019-05-13T19:28:35.962Z,1.50
2019-05-13T19:31:04.412Z,1.40
2019-05-13T19:33:32.887Z,1.70
2019-05-13T19:36:01.696Z,1.20
2019-05-13T19:38:31.844Z,1.50
2019-05-13T19:41:01.889Z,1.80
2019-05-13T19:43:31.436Z,1.67
2019-05-13T19:46:01.588Z,1.30
2019-05-13T19:48:32.350Z,1.73
2019-05-13T19:51:02.140Z,1.10
2019-05-13T19:53:31.975Z,1.53
2019-05-13T19:56:01.441Z,1.47
2019-05-13T19:58:32.382Z,1.47
2019-05-13T20:01:00.432Z,1.50
2019-05-13T20:03:31.519Z,1.73
2019-05-13T20:06:01.922Z,1.20
2019-05-13T20:08:31.843Z,1.67
2019-05-13T20:11:02.043Z,1.80
2019-05-13T20:13:30.476Z,1.23
2019-05-13T20:16:01.233Z,2.17
2019-05-13T20:18:31.780Z,1.60
2019-05-13T20:21:01.225Z,1.43
2019-05-13T20:23:32.043Z,1.70
2019-05-13T20:26:00.214Z,1.80
2019-05-13T20:28:28.753Z,1.43
2019-05-13T20:30:58.316Z,1.93
2019-05-13T20:33:26.892Z,1.40
2019-05-13T20:35:55.388Z,1.57
2019-05-13T20:38:23.849Z,1.93
2019-05-13T20:40:52.269Z,1.80
2019-05-13T20:43:22.474Z,1.53
2019-05-13T20:45:51.767Z,1.47
2019-05-13T20:48:21.230Z,1.57
2019-05-13T20:50:51.942Z,2.13
2019-05-13T20:53:21.721Z,1.97
2019-05-13T20:55:52.075Z,1.93
2019-05-13T20:58:21.405Z,1.40
2019-05-13T21:00:51.498Z,1.52
2019-05-13T21:03:21.995Z,1.50
2019-05-13T21:05:52.039Z,1.80
2019-05-13T21:08:21.735Z,1.80
2019-05-13T21:10:51.679Z,2.17
2019-05-13T21:13:21.175Z,1.80
2019-05-13T21:15:51.887Z,1.60
2019-05-13T21:18:22.054Z,1.30
2019-05-13T21:20:50.166Z,1.43
2019-05-13T21:23:18.544Z,1.40
2019-05-13T21:25:46.985Z,1.50
2019-05-13T21:28:15.503Z,1.50
2019-05-13T21:30:43.903Z,1.67
2019-05-13T21:33:12.363Z,1.50
2019-05-13T21:35:41.887Z,1.53
2019-05-13T21:38:11.333Z,1.47
2019-05-13T21:40:41.583Z,1.30
2019-05-13T21:43:10.092Z,1.40
2019-05-13T21:45:38.527Z,1.77
2019-05-13T21:48:06.955Z,1.60
2019-05-13T21:50:37.353Z,1.80
2019-05-13T21:53:05.630Z,1.57
2019-05-13T21:55:34.483Z,1.80
2019-05-13T21:58:03.381Z,1.50
2019-05-13T22:00:41.574Z,1.50
2019-05-13T22:03:11.543Z,2.13
2019-05-13T22:05:39.968Z,1.37
2019-05-13T22:08:08.527Z,2.47
2019-05-13T22:10:36.986Z,1.70
2019-05-13T22:13:05.409Z,1.90
2019-05-13T22:15:33.917Z,1.53
2019-05-13T22:18:02.271Z,1.60
2019-05-13T22:20:33.023Z,1.80
2019-05-13T22:23:01.431Z,2.07
2019-05-13T22:25:29.882Z,2.03
2019-05-13T22:27:58.227Z,2.50
2019-05-13T22:30:26.669Z,2.33
2019-05-13T22:32:55.038Z,1.80
2019-05-13T22:35:23.470Z,1.70
2019-05-13T22:37:51.903Z,1.53
2019-05-13T22:40:21.878Z,1.50
2019-05-13T22:42:56.342Z,1.77
2019-05-13T22:45:21.963Z,1.60
2019-05-13T22:47:52.083Z,1.97
2019-05-13T22:50:21.850Z,1.93
2019-05-13T22:52:50.408Z,1.60
2019-05-13T22:55:18.860Z,2.03
2019-05-13T22:57:47.286Z,1.40
2019-05-13T23:00:15.819Z,1.80
2019-05-13T23:02:44.201Z,1.73
2019-05-13T23:05:12.661Z,1.90
2019-05-13T23:07:41.077Z,1.60
2019-05-13T23:10:11.619Z,1.70
2019-05-13T23:12:41.906Z,2.13
2019-05-13T23:15:11.972Z,2.23
2019-05-13T23:17:41.538Z,1.77
2019-05-13T23:20:10.192Z,1.83
2019-05-13T23:22:57.775Z,1.60
2019-05-13T23:25:26.170Z,1.67
2019-05-13T23:27:54.566Z,1.77
2019-05-13T23:30:23.062Z,2.37
2019-05-13T23:32:51.886Z,1.50
2019-05-13T23:35:21.643Z,2.17
2019-05-13T23:37:50.977Z,1.90
2019-05-13T23:40:19.591Z,2.17
2019-05-13T23:42:47.975Z,1.70
2019-05-13T23:45:16.450Z,2.00
2019-05-13T23:47:44.799Z,1.93
2019-05-13T23:50:13.260Z,1.90
2019-05-13T23:52:41.912Z,2.10
2019-05-13T23:55:10.998Z,1.80
2019-05-13T23:57:41.941Z,1.70
